Time;durP1;ratioP1;P1;durP2;ratioP2;P2;SDS_P1;SDS_P2;PMS_P1;PMS_P2;Temp;Humidity;BMP_temperature;BMP_pressure;BME280_temperature;BME280_humidity;BME280_pressure;Samples;Min_cycle;Max_cycle;Signal;HPM_P1;HPM_P2
2022/06/03 00:03:17;;;;;;;1.70;1.23;;;13.60;94.20;;;14.39;80.50;98265.66;4960612;28;20908;-79
2022/06/03 00:06:34;;;;;;;1.80;1.50;;;13.60;94.10;;;14.30;80.94;98266.84;4963369;28;20470;-79
2022/06/03 00:09:47;;;;;;;1.87;1.40;;;13.50;94.20;;;14.24;81.72;98267.69;4956904;28;20968;-79
2022/06/03 00:12:53;;;;;;;1.57;1.43;;;13.40;94.50;;;14.19;82.04;98256.97;4958961;28;20482;-80
2022/06/03 00:16:07;;;;;;;5.23;2.20;;;13.40;94.70;;;14.17;81.96;98261.63;4957195;28;20588;-80
2022/06/03 00:19:15;;;;;;;2.07;1.47;;;13.40;94.40;;;14.12;82.51;98258.81;4960055;28;20523;-79
2022/06/03 00:22:07;;;;;;;3.83;1.87;;;13.30;94.60;;;14.05;82.62;98258.00;4958966;28;20469;-80
2022/06/03 00:25:55;;;;;;;1.83;1.60;;;13.30;94.50;;;14.03;83.07;98262.63;4959005;28;20975;-80
2022/06/03 00:28:54;;;;;;;2.60;1.73;;;13.30;94.50;;;13.98;83.36;98260.63;4909744;28;20566;-79
2022/06/03 00:32:03;;;;;;;1.77;1.57;;;13.20;94.70;;;13.92;83.69;98264.06;4956680;28;20476;-80
2022/06/03 00:35:41;;;;;;;2.03;1.40;;;13.10;94.90;;;13.91;83.83;98267.72;4960862;28;20529;-79
2022/06/03 00:39:01;;;;;;;1.87;1.50;;;13.10;94.90;;;13.89;83.72;98271.53;4949579;28;20484;-80
2022/06/03 00:41:47;;;;;;;1.57;1.47;;;13.10;94.80;;;13.79;84.52;98265.88;4957446;28;20472;-79
2022/06/03 00:44:51;;;;;;;2.70;1.60;;;13.10;94.80;;;13.83;84.97;98272.34;4961660;28;20487;-80
2022/06/03 00:47:47;;;;;;;2.03;1.73;;;12.90;95.30;;;13.86;84.84;98269.31;4956060;28;21045;-80
2022/06/03 00:50:51;;;;;;;2.17;1.40;;;12.90;95.30;;;13.75;84.86;98264.66;4957898;28;20869;-80
2022/06/03 00:54:01;;;;;;;11.70;1.50;;;12.90;95.10;;;13.67;85.85;98270.13;4961771;28;20460;-80
2022/06/03 00:57:09;;;;;;;1.90;1.60;;;12.80;95.50;;;13.71;85.82;98271.34;4957523;28;20527;-80
2022/06/03 01:00:10;;;;;;;1.37;1.20;;;12.80;95.40;;;13.73;85.72;98269.31;4957644;28;20514;-80
2022/06/03 01:03:15;;;;;;;1.40;1.30;;;12.70;95.70;;;13.69;85.49;98262.84;4961510;28;20489;-79
2022/06/03 01:06:24;;;;;;;3.10;1.77;;;12.70;95.50;;;13.63;85.78;98268.91;4958542;28;21205;-80
2022/06/03 01:09:18;;;;;;;2.40;1.70;;;12.70;95.50;;;13.57;86.13;98271.31;4956004;28;20551;-80
2022/06/03 01:12:26;;;;;;;1.80;1.40;;;12.60;95.70;;;13.57;86.20;98275.78;4960246;28;20477;-79
2022/06/03 01:15:24;;;;;;;2.40;1.60;;;12.60;95.70;;;13.53;86.74;98280.63;4958920;28;20980;-79
2022/06/03 01:18:16;;;;;;;2.20;1.50;;;12.60;95.50;;;13.44;87.12;98270.50;4959642;28;20500;-80
2022/06/03 01:21:08;;;;;;;1.97;1.77;;;12.60;95.80;;;13.46;87.14;98273.75;4959803;28;20441;-80
2022/06/03 01:24:27;;;;;;;2.73;1.70;;;12.50;95.90;;;13.47;87.39;98270.09;4959148;28;20512;-79
2022/06/03 01:27:48;;;;;;;1.30;1.20;;;12.50;96.00;;;13.37;87.36;98275.72;4959408;28;20462;-79
2022/06/03 01:30:37;;;;;;;3.30;2.07;;;12.40;95.90;;;13.34;87.72;98273.50;4958966;28;20453;-80
2022/06/03 01:33:47;;;;;;;1.93;1.73;;;12.40;95.90;;;13.27;88.37;98264.81;4957506;28;20472;-80
2022/06/03 01:36:54;;;;;;;2.23;1.63;;;12.40;96.00;;;13.20;89.26;98257.91;4957562;28;20874;-80
2022/06/03 01:40:28;;;;;;;3.77;1.60;;;12.30;96.30;;;13.23;88.85;98254.88;4956606;28;20511;-79
2022/06/03 01:43:33;;;;;;;1.80;1.40;;;12.30;96.10;;;13.16;89.54;98252.25;4956615;28;20987;-80
2022/06/03 01:46:26;;;;;;;2.67;1.60;;;12.30;96.20;;;13.08;89.49;98252.41;4960277;28;20558;-80
2022/06/03 01:49:45;;;;;;;1.80;1.67;;;12.20;96.20;;;13.09;90.15;98251.41;4959052;28;20473;-80
2022/06/03 01:53:01;;;;;;;4.70;1.60;;;12.10;96.60;;;13.06;89.99;98254.41;4957457;28;20474;-80
2022/06/03 01:56:31;;;;;;;1.80;1.60;;;12.10;96.40;;;12.99;90.44;98256.19;4955981;28;20538;-79
2022/06/03 01:59:56;;;;;;;1.67;1.43;;;12.10;96.50;;;13.04;90.54;98256.44;4957887;28;20464;-79
2022/06/03 02:03:07;;;;;;;2.43;1.90;;;12.00;96.80;;;12.95;90.75;98247.09;4959577;28;20975;-80
2022/06/03 02:06:13;;;;;;;2.60;1.50;;;12.00;96.50;;;12.92;91.23;98245.69;4962937;28;20472;-79
2022/06/03 02:09:42;;;;;;;2.10;1.50;;;11.90;96.80;;;12.86;91.40;98240.41;4958334;28;20480;-79
2022/06/03 02:13:22;;;;;;;2.87;1.50;;;11.90;96.60;;;12.81;91.75;98243.63;4957091;28;21031;-80
2022/06/03 02:16:41;;;;;;;2.67;1.80;;;11.90;96.80;;;12.76;91.95;98246.03;4959488;28;20496;-79
2022/06/03 02:20:05;;;;;;;1.77;1.50;;;11.90;96.70;;;12.69;92.47;98239.94;4961085;28;20571;-79
2022/06/03 02:23:24;;;;;;;2.30;1.77;;;11.80;96.70;;;12.66;93.17;98234.28;4946893;28;20469;-80
2022/06/03 02:26:32;;;;;;;1.97;1.60;;;11.80;96.80;;;12.69;93.51;98241.75;4945900;28;20473;-79
2022/06/03 02:30:27;;;;;;;3.33;1.60;;;11.70;97.20;;;12.58;93.92;98238.69;4960242;28;20527;-79
2022/06/03 02:33:52;;;;;;;1.57;1.40;;;11.70;97.00;;;12.58;94.22;98243.94;4960834;28;20465;-79
2022/06/03 02:37:19;;;;;;;2.20;1.83;;;11.70;97.40;;;12.59;94.64;98248.19;4963466;28;20508;-80
2022/06/03 02:40:47;;;;;;;3.20;1.80;;;11.60;97.50;;;12.50;94.52;98233.59;4959237;28;20596;-80
2022/06/03 02:44:13;;;;;;;2.10;1.43;;;11.60;97.30;;;12.50;94.56;98244.09;4936208;28;20464;-79
2022/06/03 02:47:33;;;;;;;2.53;1.60;;;11.50;97.50;;;12.44;95.07;98239.63;4963421;28;20507;-80
2022/06/03 02:50:41;;;;;;;2.20;1.50;;;11.50;97.60;;;12.46;95.07;98239.44;4945410;28;20847;-80
2022/06/03 02:54:03;;;;;;;2.20;1.77;;;11.50;97.70;;;12.41;95.26;98245.25;4960313;28;20520;-79
2022/06/03 02:57:17;;;;;;;3.80;1.70;;;11.50;97.50;;;12.32;96.16;98237.75;4957704;28;21033;-79
2022/06/03 03:00:17;;;;;;;3.27;1.50;;;11.50;97.50;;;12.23;97.31;98239.69;4960439;28;20534;-80
2022/06/03 03:03:35;;;;;;;2.10;1.70;;;11.50;97.60;;;12.25;97.77;98242.91;4961997;28;20636;-80
2022/06/03 03:06:55;;;;;;;2.27;2.07;;;11.40;97.80;;;12.19;97.62;98237.63;4958117;28;20500;-79
2022/06/03 03:10:00;;;;;;;1.30;1.20;;;11.40;97.50;;;12.16;98.10;98227.53;4961695;28;20516;-86
2022/06/03 03:13:03;;;;;;;1.90;1.53;;;11.40;97.70;;;12.11;98.33;98233.38;4958042;28;20472;-79
2022/06/03 03:16:21;;;;;;;3.77;1.73;;;11.30;97.70;;;12.07;98.79;98240.00;4960321;28;20539;-80
2022/06/03 03:19:43;;;;;;;3.50;1.60;;;11.30;97.70;;;12.03;99.28;98233.53;4929090;28;20468;-79
2022/06/03 03:23:02;;;;;;;5.20;3.30;;;11.30;97.90;;;12.04;100.00;98227.28;4962375;28;20833;-78
2022/06/03 03:25:54;;;;;;;1.57;1.40;;;11.20;98.20;;;12.06;99.33;98230.50;4959424;28;20476;-81
2022/06/03 03:29:06;;;;;;;1.60;1.50;;;11.20;98.20;;;12.07;99.26;98232.97;4959197;28;20571;-79
2022/06/03 03:32:15;;;;;;;2.10;1.50;;;11.20;98.20;;;12.01;100.00;98236.31;4961037;28;20461;-79
2022/06/03 03:35:14;;;;;;;2.67;1.80;;;11.20;98.30;;;12.02;100.00;98231.91;4959706;28;21017;-79
2022/06/03 03:38:36;;;;;;;3.73;1.70;;;11.20;98.10;;;11.98;100.00;98228.84;4962550;28;20941;-79
2022/06/03 03:41:59;;;;;;;3.87;1.60;;;11.20;98.30;;;11.95;100.00;98216.13;4958788;28;20592;-83
2022/06/03 03:45:21;;;;;;;7.23;2.10;;;11.20;98.30;;;11.88;100.00;98214.47;4959794;28;20473;-75
2022/06/03 03:48:44;;;;;;;3.23;1.90;;;11.20;98.20;;;11.91;100.00;98217.50;4960622;28;21078;-75
2022/06/03 03:51:33;;;;;;;1.73;1.57;;;11.10;98.80;;;11.88;100.00;98214.47;4961739;28;20471;-75
2022/06/03 03:54:51;;;;;;;1.87;1.40;;;11.10;98.60;;;11.79;100.00;98211.19;4960219;28;20995;-76
2022/06/03 03:58:17;;;;;;;2.57;1.60;;;11.10;98.50;;;11.77;100.00;98207.94;4959408;28;20452;-75
2022/06/03 04:01:52;;;;;;;1.53;1.40;;;11.10;98.70;;;11.81;100.00;98208.34;4961901;28;21019;-75
2022/06/03 04:05:36;;;;;;;2.43;2.10;;;11.00;99.00;;;11.85;100.00;98218.28;4917716;28;20472;-75
2022/06/03 04:08:58;;;;;;;2.27;1.60;;;11.10;98.80;;;11.90;100.00;98218.53;4959003;28;20531;-75
2022/06/03 04:12:07;;;;;;;1.70;1.40;;;11.00;99.20;;;11.95;100.00;98203.03;4939858;28;21451;-75
2022/06/03 04:15:29;;;;;;;1.60;1.47;;;11.00;99.40;;;11.96;100.00;98206.47;4959601;28;20472;-77
2022/06/03 04:18:56;;;;;;;2.60;2.00;;;11.00;99.20;;;11.93;100.00;98204.22;4947419;28;20491;-75
2022/06/03 04:22:11;;;;;;;3.53;1.90;;;11.10;99.10;;;11.98;100.00;98204.44;4950558;28;20477;-75
2022/06/03 04:25:49;;;;;;;2.27;1.93;;;11.10;99.30;;;12.01;100.00;98194.38;4955477;28;20505;-75
2022/06/03 04:29:36;;;;;;;1.67;1.57;;;11.10;99.30;;;12.03;100.00;98200.25;4936457;28;20519;-75
2022/06/03 04:32:50;;;;;;;1.97;1.70;;;11.20;99.20;;;12.01;100.00;98196.19;4956415;28;20496;-75
2022/06/03 04:36:34;;;;;;;3.30;2.10;;;11.30;99.00;;;12.12;100.00;98206.16;4958374;28;20497;-76
2022/06/03 04:40:07;;;;;;;4.73;1.53;;;11.20;99.30;;;12.21;100.00;98205.00;4960584;28;20861;-76
2022/06/03 04:43:56;;;;;;;3.23;1.60;;;11.30;99.50;;;12.23;100.00;98218.72;4961276;28;20451;-75
2022/06/03 04:47:35;;;;;;;2.07;1.87;;;11.40;99.20;;;12.31;100.00;98226.44;4961054;28;20469;-75
2022/06/03 04:51:09;;;;;;;2.40;1.80;;;11.50;99.40;;;12.39;100.00;98217.63;4962038;28;20480;-76
2022/06/03 04:54:32;;;;;;;2.40;2.00;;;11.50;99.30;;;12.50;100.00;98201.31;4961269;28;20465;-75
2022/06/03 04:58:02;;;;;;;1.90;1.50;;;11.50;99.30;;;12.54;100.00;98195.47;4958295;28;20499;-75
2022/06/03 05:01:09;;;;;;;1.63;1.30;;;11.60;99.70;;;12.57;100.00;98195.09;4962588;28;20897;-75
2022/06/03 05:04:45;;;;;;;2.40;1.67;;;11.70;99.60;;;12.67;100.00;98188.69;4962449;28;20896;-76
2022/06/03 05:08:21;;;;;;;2.50;2.00;;;11.80;99.90;;;12.74;100.00;98189.50;4963167;28;20520;-75
2022/06/03 05:11:44;;;;;;;6.37;2.10;;;11.80;99.80;;;12.82;100.00;98192.75;4962930;28;20484;-75
2022/06/03 05:15:12;;;;;;;2.87;1.80;;;11.80;99.90;;;12.89;100.00;98190.97;4959468;28;20453;-76
2022/06/03 05:18:28;;;;;;;4.73;1.90;;;11.90;99.70;;;12.97;100.00;98190.78;4958052;28;20956;-76
2022/06/03 05:21:56;;;;;;;2.13;1.80;;;12.00;99.70;;;13.02;100.00;98171.78;4946545;28;20774;-75
2022/06/03 05:25:22;;;;;;;1.73;1.53;;;12.10;99.30;;;13.08;100.00;98176.28;4959558;28;20458;-75
2022/06/03 05:28:34;;;;;;;2.43;1.67;;;12.20;99.40;;;13.15;100.00;98177.13;4959928;28;20464;-76
2022/06/03 05:32:13;;;;;;;2.63;1.73;;;12.30;99.80;;;13.22;100.00;98185.81;4962243;28;20507;-76
2022/06/03 05:35:52;;;;;;;1.73;1.60;;;12.20;99.90;;;13.26;100.00;98189.63;4930845;28;20520;-76
2022/06/03 05:39:29;;;;;;;2.70;1.93;;;12.40;99.80;;;13.33;100.00;98202.81;4966428;28;20449;-76
2022/06/03 05:42:30;;;;;;;1.80;1.60;;;12.50;99.70;;;13.38;100.00;98197.75;4965072;28;20454;-76
2022/06/03 05:46:08;;;;;;;2.37;2.07;;;12.50;99.80;;;13.46;100.00;98201.00;4966113;28;20448;-75
2022/06/03 05:49:21;;;;;;;6.83;1.87;;;12.60;99.70;;;13.56;100.00;98195.34;4894817;29;20456;-76
2022/06/03 05:52:28;;;;;;;2.37;1.77;;;12.70;99.90;;;13.62;100.00;98199.78;4885786;29;20452;-76
2022/06/03 05:55:17;;;;;;;1.87;1.70;;;12.70;99.80;;;13.67;100.00;98201.81;4965894;28;20861;-76
2022/06/03 05:58:12;;;;;;;2.10;1.47;;;12.80;99.70;;;13.75;100.00;98193.69;4965011;28;20484;-75
2022/06/03 06:01:33;;;;;;;1.70;1.50;;;12.90;99.90;;;13.84;100.00;98197.75;4966194;28;20448;-76
2022/06/03 06:04:20;;;;;;;5.20;2.10;;;12.90;99.90;;;13.89;100.00;98205.81;4967179;28;20441;-76
2022/06/03 06:07:13;;;;;;;3.30;2.07;;;13.00;99.70;;;13.97;100.00;98198.53;4966306;28;20452;-75
2022/06/03 06:09:55;;;;;;;5.20;2.00;;;13.10;99.80;;;14.03;100.00;98197.72;4966784;28;20488;-76
2022/06/03 06:13:06;;;;;;;3.53;1.97;;;13.10;99.80;;;14.08;100.00;98199.75;4964883;28;20457;-75
2022/06/03 06:16:08;;;;;;;7.50;2.07;;;13.20;99.50;;;14.16;100.00;98193.47;4963911;28;20867;-76
2022/06/03 06:18:50;;;;;;;3.47;2.20;;;13.20;99.50;;;14.21;100.00;98193.63;4964770;28;21314;-76
2022/06/03 06:22:21;;;;;;;2.20;1.80;;;13.30;99.90;;;14.27;100.00;98205.94;4965976;28;20461;-76
2022/06/03 06:25:11;;;;;;;4.23;2.00;;;13.40;99.90;;;14.28;100.00;98203.13;4966844;28;20455;-76
2022/06/03 06:28:04;;;;;;;2.47;2.20;;;13.50;99.90;;;14.31;100.00;98200.06;4963155;28;20461;-75
2022/06/03 06:31:27;;;;;;;1.70;1.60;;;13.60;99.90;;;14.34;100.00;98191.78;4960887;28;20940;-75
2022/06/03 06:34:29;;;;;;;2.70;1.73;;;13.50;99.90;;;14.37;100.00;98199.28;4962842;28;20817;-76
2022/06/03 06:37:51;;;;;;;2.70;2.00;;;13.40;99.90;;;14.39;100.00;98192.00;4960151;28;20500;-75
2022/06/03 06:40:41;;;;;;;2.90;1.50;;;13.60;99.90;;;14.42;100.00;98191.59;4960296;28;20972;-76
2022/06/03 06:43:40;;;;;;;2.20;1.70;;;13.60;99.90;;;14.46;100.00;98195.41;4962138;28;20455;-75
2022/06/03 06:46:25;;;;;;;3.00;1.60;;;13.60;99.90;;;14.47;100.00;98194.38;4960854;28;20466;-76
2022/06/03 06:49:11;;;;;;;2.60;1.73;;;13.70;99.90;;;14.51;100.00;98186.88;4961819;28;20437;-76
2022/06/03 06:52:49;;;;;;;6.47;1.83;;;13.70;99.90;;;14.59;100.00;98187.47;4961253;28;20462;-76
2022/06/03 06:55:30;;;;;;;4.00;1.87;;;13.70;99.90;;;14.67;100.00;98189.06;4960518;28;20457;-76
2022/06/03 06:58:06;;;;;;;4.43;1.80;;;13.80;99.90;;;14.75;100.00;98180.13;4961490;28;20494;-75
2022/06/03 07:00:45;;;;;;;5.47;2.20;;;13.80;99.90;;;14.80;100.00;98177.66;4961509;28;20452;-76
2022/06/03 07:03:29;;;;;;;1.97;1.77;;;13.90;99.90;;;14.85;100.00;98164.69;4961284;28;20457;-76
2022/06/03 07:06:07;;;;;;;2.50;1.67;;;14.00;99.90;;;14.87;100.00;98163.44;4964363;28;20453;-76
2022/06/03 07:08:45;;;;;;;9.63;1.60;;;14.00;99.90;;;14.95;100.00;98163.19;4963415;28;20504;-76
2022/06/03 07:11:23;;;;;;;1.80;1.40;;;14.10;99.50;;;15.00;100.00;98157.28;4963973;28;21190;-76
2022/06/03 07:13:58;;;;;;;3.10;1.50;;;14.10;99.20;;;15.07;100.00;98168.56;4963830;28;20461;-76
2022/06/03 07:19:54;;;;;;;1.37;1.20;;;14.30;99.10;;;15.22;96.65;98155.09;4964587;28;20460;-75
2022/06/03 07:22:30;;;;;;;2.83;1.47;;;14.50;98.50;;;15.28;96.15;98144.53;4963859;28;20870;-76
2022/06/03 07:25:08;;;;;;;3.30;1.23;;;14.50;98.40;;;15.35;94.90;98140.00;4964414;28;20444;-76
2022/06/03 07:27:53;;;;;;;3.30;1.50;;;14.60;98.00;;;15.42;93.42;98146.03;4893915;28;2058168;-76
2022/06/03 07:30:34;;;;;;;2.33;1.90;;;14.70;98.00;;;15.47;90.96;98148.03;4963447;28;20198;-76
2022/06/03 07:33:17;;;;;;;3.00;1.30;;;14.80;97.30;;;15.55;90.23;98134.59;4963014;28;20450;-76
2022/06/03 07:35:58;;;;;;;2.97;1.30;;;14.80;96.80;;;15.63;89.75;98136.16;4965718;28;20882;-76
2022/06/03 07:38:39;;;;;;;2.30;1.47;;;14.90;97.20;;;15.68;88.58;98131.84;4964392;28;20505;-76
2022/06/03 07:41:18;;;;;;;3.73;1.50;;;15.00;96.90;;;15.78;88.30;98139.25;4963175;28;20950;-76
2022/06/03 07:43:56;;;;;;;6.20;2.20;;;15.00;96.90;;;15.85;88.35;98124.19;4962960;28;20517;-76
2022/06/03 07:46:34;;;;;;;6.53;1.70;;;15.10;97.00;;;15.92;87.95;98124.94;4963896;28;20495;-76
2022/06/03 07:49:07;;;;;;;2.17;1.40;;;15.20;96.70;;;15.98;85.18;98126.69;4962785;28;20446;-76
2022/06/03 07:51:42;;;;;;;3.33;1.47;;;15.40;96.10;;;16.04;85.63;98117.88;4962740;28;20471;-76
2022/06/03 07:54:23;;;;;;;3.03;1.50;;;15.40;96.20;;;16.11;85.32;98106.22;4963341;28;20441;-76
2022/06/03 07:57:02;;;;;;;3.40;1.27;;;15.40;96.00;;;16.20;84.95;98112.03;4962475;28;20437;-76
2022/06/03 07:59:38;;;;;;;1.67;1.40;;;15.50;95.80;;;16.28;84.40;98108.28;4964295;28;20445;-76
2022/06/03 08:02:19;;;;;;;3.00;1.60;;;15.60;96.10;;;16.33;83.60;98095.22;4961009;28;20461;-76
2022/06/03 08:05:07;;;;;;;2.00;1.50;;;15.60;95.70;;;16.43;83.28;98101.59;4962162;28;20899;-76
2022/06/03 08:13:21;;;;;;;2.23;1.53;;;15.90;95.70;;;16.68;81.55;98087.47;4960777;28;20471;-76
2022/06/03 08:15:58;;;;;;;1.70;1.20;;;15.90;95.40;;;16.75;81.47;98083.72;4962653;28;20460;-76
2022/06/03 08:18:35;;;;;;;2.43;1.37;;;16.00;95.40;;;16.83;81.99;98085.25;4961953;28;20583;-76
2022/06/03 08:21:14;;;;;;;7.03;2.03;;;16.10;95.80;;;16.91;81.09;98087.53;4961863;28;20458;-76
2022/06/03 08:23:46;;;;;;;1.60;1.40;;;16.20;95.50;;;17.00;80.28;98088.84;4960749;28;20449;-76
2022/06/03 08:26:26;;;;;;;3.13;1.40;;;16.40;95.30;;;17.08;80.77;98085.84;4959778;28;20451;-74
2022/06/03 08:29:08;;;;;;;5.03;1.60;;;16.40;95.30;;;17.16;80.52;98085.53;4958720;28;20476;-76
2022/06/03 08:31:39;;;;;;;2.00;1.50;;;16.50;95.50;;;17.24;80.31;98087.03;4957394;28;20446;-76
2022/06/03 08:34:20;;;;;;;2.07;1.50;;;16.50;95.50;;;17.33;79.54;98075.09;4958234;28;20488;-76
2022/06/03 08:36:54;;;;;;;4.93;1.70;;;16.70;95.20;;;17.41;78.78;98067.63;4956870;28;20519;-76
2022/06/03 08:39:30;;;;;;;3.60;1.60;;;16.80;95.00;;;17.51;78.91;98067.84;4959690;28;20459;-76
2022/06/03 08:42:23;;;;;;;1.70;1.60;;;16.90;95.30;;;17.62;78.62;98057.53;4956776;28;20448;-76
2022/06/03 08:45:16;;;;;;;2.23;1.57;;;17.00;95.00;;;17.69;77.67;98069.59;4957703;28;21007;-76
2022/06/03 08:47:52;;;;;;;3.27;1.50;;;17.00;94.60;;;17.75;77.14;98067.88;4956500;28;21258;-76
2022/06/03 08:50:40;;;;;;;3.03;1.63;;;17.10;94.80;;;17.81;77.39;98072.22;4956459;28;20457;-76
2022/06/03 08:53:24;;;;;;;1.90;1.60;;;17.10;94.80;;;17.86;77.29;98067.03;4963006;28;20932;-76
2022/06/03 08:55:59;;;;;;;2.03;1.30;;;17.10;94.70;;;17.92;77.61;98063.47;4963716;28;20433;-76
2022/06/03 08:58:46;;;;;;;4.50;1.67;;;17.20;95.20;;;17.99;77.86;98072.06;4961880;28;20495;-76
2022/06/03 09:01:36;;;;;;;3.00;1.73;;;17.30;95.10;;;18.04;78.02;98073.00;4961895;28;20567;-76
2022/06/03 09:04:30;;;;;;;1.97;1.80;;;17.40;95.00;;;18.09;77.07;98070.44;4962989;28;20450;-76
2022/06/03 09:07:10;;;;;;;3.33;1.63;;;17.50;94.70;;;18.14;77.31;98064.47;4962962;28;20472;-77
2022/06/03 09:09:49;;;;;;;2.20;1.63;;;17.50;95.00;;;18.21;77.61;98062.47;4961394;28;20465;-76
2022/06/03 09:12:38;;;;;;;1.83;1.60;;;17.60;95.00;;;18.27;78.38;98066.03;4962187;28;20536;-76
2022/06/03 09:15:21;;;;;;;2.40;1.77;;;17.60;95.30;;;18.36;79.19;98064.63;4963881;28;20452;-76
2022/06/03 09:17:58;;;;;;;2.00;1.70;;;17.70;95.50;;;18.42;79.04;98063.66;4962971;28;20481;-76
2022/06/03 09:20:33;;;;;;;3.10;1.90;;;17.90;95.40;;;18.48;78.80;98071.47;4963269;28;20532;-76
2022/06/03 09:23:09;;;;;;;2.50;2.00;;;17.90;95.20;;;18.56;78.74;98065.84;4960816;28;20434;-76
2022/06/03 09:25:47;;;;;;;4.13;1.93;;;18.00;95.30;;;18.65;78.43;98057.47;4962376;28;20465;-76
2022/06/03 09:28:25;;;;;;;3.00;1.80;;;18.10;95.20;;;18.70;78.33;98070.84;4960970;28;20971;-76
2022/06/03 09:30:58;;;;;;;2.03;1.70;;;18.10;95.20;;;18.75;78.10;98057.66;4962855;28;20452;-76
2022/06/03 09:33:31;;;;;;;3.47;1.87;;;18.10;95.20;;;18.82;79.20;98053.00;4961800;28;20438;-76
2022/06/03 09:36:06;;;;;;;2.50;1.57;;;18.20;95.60;;;18.86;80.09;98054.94;4962288;28;20480;-76
2022/06/03 09:38:44;;;;;;;3.10;1.80;;;18.20;95.90;;;18.96;80.20;98059.63;4961632;28;20497;-76
2022/06/03 09:41:19;;;;;;;2.10;1.40;;;18.30;96.00;;;19.00;80.56;98060.75;4962264;28;20508;-76
2022/06/03 09:43:54;;;;;;;2.57;1.73;;;18.30;95.90;;;19.06;80.36;98059.78;4961995;28;20462;-76
2022/06/03 09:46:29;;;;;;;3.00;1.70;;;18.40;95.80;;;19.12;80.05;98050.88;4962227;28;20948;-76
2022/06/03 09:49:01;;;;;;;2.70;1.63;;;18.50;95.80;;;19.21;79.75;98046.78;4960667;28;20477;-76
2022/06/03 09:54:26;;;;;;;3.57;1.80;;;18.60;96.10;;;19.37;80.37;98037.19;4955617;28;20520;-76
2022/06/03 09:57:07;;;;;;;4.70;1.80;;;18.70;96.00;;;19.42;79.84;98027.50;4957482;28;20455;-76
2022/06/03 09:59:41;;;;;;;2.50;1.87;;;18.80;95.80;;;19.49;79.58;98024.66;4959273;28;21010;-76
2022/06/03 10:02:11;;;;;;;4.60;1.70;;;18.90;95.80;;;19.56;80.12;98027.94;4961964;28;20476;-76
2022/06/03 10:04:42;;;;;;;2.53;1.70;;;18.90;96.00;;;19.62;80.73;98032.28;4960470;28;20947;-76
2022/06/03 10:07:12;;;;;;;3.87;1.57;;;19.00;96.20;;;19.71;80.61;98025.50;4962001;28;20453;-76
2022/06/03 10:12:52;;;;;;;3.37;1.87;;;19.10;96.40;;;19.94;81.48;98019.16;4962487;28;20475;-76
2022/06/03 10:15:42;;;;;;;2.40;2.00;;;19.20;96.90;;;20.05;82.50;98012.91;4961623;28;20929;-76
2022/06/03 10:18:29;;;;;;;7.43;1.90;;;19.40;96.80;;;20.17;81.21;98013.56;4961969;28;20493;-76
2022/06/03 10:21:33;;;;;;;4.47;2.13;;;19.60;96.40;;;20.29;83.29;98016.94;4963615;28;20460;-76
2022/06/03 10:24:08;;;;;;;2.77;2.03;;;19.60;97.10;;;20.36;81.92;98017.53;4964636;28;20531;-76
2022/06/03 10:26:48;;;;;;;2.30;1.63;;;19.70;96.60;;;20.46;80.86;98016.81;4965885;28;20530;-76
2022/06/03 10:29:23;;;;;;;2.40;2.00;;;19.90;96.30;;;20.57;80.96;98018.53;4966349;28;20500;-76
2022/06/03 10:31:55;;;;;;;4.33;1.80;;;20.00;96.30;;;20.68;80.52;98019.44;4964375;28;20456;-77
2022/06/03 10:34:36;;;;;;;2.10;1.60;;;20.10;96.50;;;20.77;80.55;98023.22;4964223;28;20506;-76
2022/06/03 10:37:12;;;;;;;1.70;1.50;;;20.10;96.20;;;20.85;79.90;98020.91;4965536;28;20447;-76
2022/06/03 10:39:44;;;;;;;1.90;1.60;;;20.20;96.30;;;20.92;80.28;98018.03;4964399;28;20497;-76
2022/06/03 10:42:19;;;;;;;5.20;2.03;;;20.30;96.40;;;21.02;80.04;98026.09;4965233;28;20456;-76
2022/06/03 10:44:58;;;;;;;2.40;1.80;;;20.40;96.20;;;21.07;78.95;98018.16;4965286;28;20437;-76
2022/06/03 10:47:38;;;;;;;3.00;1.83;;;20.50;96.10;;;21.14;78.19;98023.31;4963845;28;20445;-76
2022/06/03 10:50:25;;;;;;;2.23;1.90;;;20.60;95.70;;;21.23;77.79;98016.44;4965404;28;20548;-76
2022/06/03 11:01:52;;;;;;;3.10;1.73;;;20.70;95.30;;;21.46;75.70;98022.19;4960282;28;20458;-76
2022/06/03 11:04:33;;;;;;;2.30;1.90;;;20.80;95.40;;;21.54;76.98;98015.56;4960436;28;20577;-76
2022/06/03 11:07:24;;;;;;;3.37;2.30;;;20.80;96.20;;;21.61;76.43;98010.00;4960572;28;20463;-77
2022/06/03 11:09:57;;;;;;;2.50;1.90;;;20.90;95.70;;;21.66;75.84;98010.06;4961007;28;20947;-76
2022/06/03 11:12:31;;;;;;;2.40;1.80;;;21.00;95.40;;;21.73;74.77;98006.06;4960324;28;20463;-76
2022/06/03 11:15:00;;;;;;;5.03;2.03;;;21.10;95.20;;;21.80;76.21;97996.00;4961262;28;20477;-76
2022/06/03 11:17:40;;;;;;;4.43;2.30;;;21.30;95.80;;;21.91;75.99;97996.88;4960462;28;20462;-76
2022/06/03 11:20:34;;;;;;;3.77;2.30;;;21.40;95.60;;;21.95;74.82;98001.41;4959951;28;21128;-77
2022/06/03 11:23:10;;;;;;;2.73;1.80;;;21.50;95.10;;;22.02;74.50;97993.97;4961014;28;20566;-76
2022/06/03 11:25:43;;;;;;;3.93;1.87;;;21.60;95.10;;;22.06;74.51;97994.25;4962896;28;20545;-76
2022/06/03 11:28:19;;;;;;;2.30;1.60;;;21.60;95.10;;;22.15;74.23;97991.88;4965390;28;20927;-76
2022/06/03 11:31:10;;;;;;;2.13;1.90;;;21.70;95.10;;;22.23;74.20;97992.19;4964786;28;20449;-76
2022/06/03 11:33:49;;;;;;;3.00;2.17;;;21.70;95.30;;;22.29;73.63;97993.78;4964151;28;20954;-76
2022/06/03 11:36:28;;;;;;;3.57;1.90;;;21.80;95.00;;;22.33;72.58;97981.53;4964454;28;20476;-75
2022/06/03 11:39:05;;;;;;;3.80;1.73;;;21.80;94.60;;;22.43;73.41;97978.88;4965092;28;20476;-76
2022/06/03 11:41:45;;;;;;;2.90;2.43;;;21.90;95.30;;;22.50;73.25;97974.09;4964563;28;20453;-76
2022/06/03 11:44:25;;;;;;;2.23;1.90;;;22.00;95.10;;;22.60;73.56;97973.28;4965547;28;20516;-76
2022/06/03 11:47:02;;;;;;;13.33;2.20;;;22.10;95.10;;;22.70;73.81;97970.66;4964962;28;20534;-76
2022/06/03 11:49:34;;;;;;;3.90;1.80;;;22.20;95.50;;;22.75;75.33;97976.00;4964253;28;20467;-76
2022/06/03 11:52:10;;;;;;;4.17;1.97;;;22.10;95.80;;;22.83;74.30;97977.34;4963364;28;20495;-76
2022/06/03 11:54:41;;;;;;;2.60;2.00;;;22.30;95.30;;;22.89;73.64;97969.06;4964064;28;20553;-76
2022/06/03 11:57:13;;;;;;;4.00;1.80;;;22.30;95.10;;;22.96;73.38;97974.94;4964953;28;20448;-76
2022/06/03 11:59:55;;;;;;;1.93;1.70;;;22.40;95.40;;;23.02;73.29;97975.72;4963400;28;20540;-76
2022/06/03 12:02:35;;;;;;;2.53;1.83;;;22.40;94.90;;;23.01;70.87;97982.16;4963219;28;20453;-76
2022/06/03 12:05:16;;;;;;;2.60;1.83;;;22.50;94.50;;;23.03;70.28;97969.31;4962963;28;20445;-76
2022/06/03 12:07:54;;;;;;;2.87;2.03;;;22.50;94.40;;;23.11;70.35;97974.13;4963833;28;20553;-76
2022/06/03 12:10:29;;;;;;;6.33;2.10;;;22.50;94.40;;;23.14;71.10;97968.25;4962797;28;20967;-75
2022/06/03 12:13:17;;;;;;;2.33;1.90;;;22.50;94.90;;;23.16;70.87;97966.09;4962815;28;20931;-76
2022/06/03 12:16:04;;;;;;;2.60;1.70;;;22.50;94.80;;;23.23;70.90;97971.16;4962062;28;20442;-77
2022/06/03 12:18:59;;;;;;;2.90;1.97;;;22.60;94.80;;;23.25;70.40;97953.03;4961983;28;20948;-76
2022/06/03 12:22:19;;;;;;;8.23;2.07;;;22.60;94.40;;;23.26;69.57;97966.06;4961792;28;21369;-76
2022/06/03 12:25:45;;;;;;;2.67;1.80;;;22.60;94.40;;;23.28;70.78;97974.63;4939159;28;20914;-76
2022/06/03 12:28:24;;;;;;;6.90;1.90;;;22.60;94.90;;;23.31;71.03;97979.44;4958525;28;20457;-76
2022/06/03 12:30:58;;;;;;;2.37;1.83;;;22.60;94.90;;;23.30;73.08;97991.16;4957913;28;20524;-76
2022/06/03 12:33:34;;;;;;;7.37;2.00;;;22.60;95.70;;;23.30;71.59;97999.16;4960997;28;20528;-76
2022/06/03 12:36:28;;;;;;;4.40;2.03;;;22.60;94.70;;;23.33;71.63;98013.84;4961381;28;20475;-76
2022/06/03 12:39:24;;;;;;;3.20;1.90;;;22.60;95.40;;;23.33;72.27;98003.97;4959174;28;20560;-76
2022/06/03 12:42:14;;;;;;;2.57;1.83;;;22.60;95.40;;;23.34;71.46;98002.91;4959111;28;20473;-75
2022/06/03 12:44:52;;;;;;;2.10;1.90;;;22.60;95.00;;;23.35;71.45;98006.38;4958097;28;20458;-76
2022/06/03 12:47:46;;;;;;;2.03;1.77;;;22.70;95.20;;;23.35;73.31;97999.16;4959525;28;20445;-76
2022/06/03 12:51:20;;;;;;;3.87;2.50;;;22.60;95.80;;;23.31;75.75;98003.44;4960032;28;20456;-75